Time;durP1;ratioP1;P1;durP2;ratioP2;P2;SDS_P1;SDS_P2;PMS_P1;PMS_P2;Temp;Humidity;BMP_temperature;BMP_pressure;BME280_temperature;BME280_humidity;BME280_pressure;Samples;Min_cycle;Max_cycle;Signal;HPM_P1;HPM_P2
2021/07/28 00:02:55;;;;;;;;;;;;;;;19.74;79.70;99838.28;10311175;28;19928;-68
2021/07/28 00:07:57;;;;;;;;;;;;;;;19.71;80.52;99818.91;10298933;28;20021;-68
2021/07/28 00:12:58;;;;;;;;;;;;;;;19.70;80.27;99820.78;10299441;28;20080;-67
2021/07/28 00:18:04;;;;;;;;;;;;;;;19.66;80.79;99822.19;10297777;28;19922;-68
2021/07/28 00:23:14;;;;;;;;;;;;;;;19.63;80.70;99814.47;10297100;28;20096;-68
2021/07/28 00:28:15;;;;;;;;;;;;;;;19.64;80.83;99818.03;10293465;28;19921;-68
2021/07/28 00:33:16;;;;;;;;;;;;;;;19.70;80.58;99823.47;10303079;28;20385;-67
2021/07/28 00:38:17;;;;;;;;;;;;;;;19.71;80.78;99821.59;10299357;28;20412;-67
2021/07/28 00:43:22;;;;;;;;;;;;;;;19.69;80.53;99829.91;10295190;28;19928;-68
2021/07/28 00:48:24;;;;;;;;;;;;;;;19.44;81.49;99834.84;10301647;28;20436;-67
2021/07/28 00:53:25;;;;;;;;;;;;;;;19.37;82.38;99845.56;10291831;28;19961;-68
2021/07/28 00:58:28;;;;;;;;;;;;;;;19.38;82.32;99844.56;10291990;28;19936;-67
2021/07/28 01:03:29;;;;;;;;;;;;;;;19.38;82.20;99832.91;10297570;28;20459;-68
2021/07/28 01:08:31;;;;;;;;;;;;;;;19.26;82.35;99829.91;10293875;28;20012;-68
2021/07/28 01:13:35;;;;;;;;;;;;;;;19.26;82.18;99829.91;10293704;28;20005;-68
2021/07/28 01:18:36;;;;;;;;;;;;;;;19.19;83.23;99820.88;10294040;28;20438;-66
2021/07/28 01:23:38;;;;;;;;;;;;;;;19.24;82.83;99827.34;10297494;28;20389;-67
2021/07/28 01:28:40;;;;;;;;;;;;;;;19.25;82.23;99831.75;10289536;28;20040;-67
2021/07/28 01:33:43;;;;;;;;;;;;;;;19.15;82.41;99842.00;10288452;28;20444;-67
2021/07/28 01:38:44;;;;;;;;;;;;;;;19.27;82.24;99855.84;10291666;28;19921;-67
2021/07/28 01:43:45;;;;;;;;;;;;;;;19.45;82.15;99851.88;10291971;28;20017;-67
2021/07/28 01:48:47;;;;;;;;;;;;;;;19.58;81.47;99846.63;10305830;28;20387;-67
2021/07/28 01:53:48;;;;;;;;;;;;;;;19.56;80.54;99848.66;10284737;28;19922;-68
2021/07/28 01:58:54;;;;;;;;;;;;;;;19.35;82.06;99836.84;10304698;28;19928;-67
2021/07/28 02:03:55;;;;;;;;;;;;;;;19.26;82.29;99835.28;10305173;28;20005;-67
2021/07/28 02:08:56;;;;;;;;;;;;;;;19.13;83.02;99832.44;10302877;28;20148;-68
2021/07/28 02:13:58;;;;;;;;;;;;;;;19.10;83.52;99835.53;10298582;28;19930;-68
2021/07/28 02:18:59;;;;;;;;;;;;;;;19.04;83.74;99827.13;10297151;28;20214;-68
2021/07/28 02:24:00;;;;;;;;;;;;;;;18.95;84.78;99830.97;10304133;28;20465;-68
2021/07/28 02:29:02;;;;;;;;;;;;;;;18.94;84.42;99826.59;10299219;28;19976;-67
2021/07/28 02:34:03;;;;;;;;;;;;;;;18.75;85.94;99840.63;10304095;28;19973;-68
2021/07/28 02:39:04;;;;;;;;;;;;;;;18.73;85.80;99841.69;10302057;28;19921;-68
2021/07/28 02:44:06;;;;;;;;;;;;;;;18.75;85.78;99829.84;10296277;28;19921;-67
2021/07/28 02:49:08;;;;;;;;;;;;;;;18.84;85.60;99834.09;10315093;28;19959;-67
2021/07/28 02:54:11;;;;;;;;;;;;;;;18.88;84.97;99830.06;10305081;28;19999;-67
2021/07/28 02:59:12;;;;;;;;;;;;;;;18.83;85.34;99835.97;10298865;28;19926;-67
2021/07/28 03:04:13;;;;;;;;;;;;;;;18.71;85.66;99832.91;10311362;28;20464;-67
2021/07/28 03:09:14;;;;;;;;;;;;;;;18.56;85.90;99842.88;10296671;28;20016;-68
2021/07/28 03:14:16;;;;;;;;;;;;;;;18.52;86.03;99844.25;10301289;28;20307;-68
2021/07/28 03:19:17;;;;;;;;;;;;;;;18.53;85.78;99841.38;10302326;28;20115;-68
2021/07/28 03:24:19;;;;;;;;;;;;;;;18.49;85.48;99840.06;10311733;28;19960;-67
2021/07/28 03:29:22;;;;;;;;;;;;;;;18.35;86.24;99843.59;10305782;28;19979;-67
2021/07/28 03:34:24;;;;;;;;;;;;;;;18.40;85.89;99851.13;10312848;28;20307;-67
2021/07/28 03:39:25;;;;;;;;;;;;;;;18.45;85.10;99848.72;10328476;28;19967;-66
2021/07/28 03:44:26;;;;;;;;;;;;;;;18.49;84.78;99844.63;10299849;28;20296;-67
2021/07/28 03:49:28;;;;;;;;;;;;;;;18.36;86.26;99848.81;10298907;28;20211;-67
2021/07/28 03:54:29;;;;;;;;;;;;;;;18.40;86.56;99856.53;10297574;28;20012;-67
2021/07/28 03:59:30;;;;;;;;;;;;;;;18.42;86.65;99849.94;10299109;28;20006;-68
2021/07/28 04:04:32;;;;;;;;;;;;;;;18.25;87.72;99837.66;10301237;28;20015;-68
2021/07/28 04:09:33;;;;;;;;;;;;;;;18.11;88.29;99833.91;10315330;28;20017;-68
2021/07/28 04:14:34;;;;;;;;;;;;;;;18.24;88.00;99836.81;10306217;28;20280;-67
2021/07/28 04:19:36;;;;;;;;;;;;;;;18.32;86.98;99835.91;10317224;28;19921;-68
2021/07/28 04:24:37;;;;;;;;;;;;;;;18.41;86.31;99832.09;10323336;28;19921;-68
2021/07/28 04:29:39;;;;;;;;;;;;;;;18.33;86.55;99822.25;10314443;28;19969;-68
2021/07/28 04:34:40;;;;;;;;;;;;;;;18.49;86.06;99823.06;10320261;28;20338;-68
2021/07/28 04:39:42;;;;;;;;;;;;;;;18.54;85.67;99817.97;10308055;28;20004;-67
2021/07/28 04:44:43;;;;;;;;;;;;;;;18.48;85.17;99821.38;10312229;28;20009;-67
2021/07/28 04:49:44;;;;;;;;;;;;;;;18.53;84.39;99819.00;10300061;28;19956;-68
2021/07/28 04:54:45;;;;;;;;;;;;;;;18.63;83.94;99827.63;10303502;28;20435;-68
2021/07/28 04:59:47;;;;;;;;;;;;;;;18.40;84.61;99830.41;10285677;28;20012;-65
2021/07/28 05:04:48;;;;;;;;;;;;;;;18.30;85.12;99830.69;10291674;28;19948;-67
2021/07/28 05:09:49;;;;;;;;;;;;;;;18.36;85.17;99832.66;10288971;28;20165;-67
2021/07/28 05:14:51;;;;;;;;;;;;;;;18.36;84.13;99829.94;10287874;28;19954;-67
2021/07/28 05:19:52;;;;;;;;;;;;;;;18.56;83.30;99826.69;10293821;28;19933;-67
2021/07/28 05:24:55;;;;;;;;;;;;;;;18.58;83.03;99842.69;10288228;28;20025;-68
2021/07/28 05:29:56;;;;;;;;;;;;;;;18.52;82.67;99844.25;10291385;28;19930;-67
2021/07/28 05:34:58;;;;;;;;;;;;;;;18.70;81.50;99836.63;10306475;28;19960;-67
2021/07/28 05:39:59;;;;;;;;;;;;;;;18.82;81.25;99855.88;10307082;28;19984;-67
2021/07/28 05:45:01;;;;;;;;;;;;;;;18.82;80.46;99839.69;10310074;28;19921;-68
2021/07/28 05:50:02;;;;;;;;;;;;;;;18.86;80.76;99840.19;10311778;28;19926;-65
2021/07/28 05:55:04;;;;;;;;;;;;;;;18.93;79.97;99843.81;10311324;28;20660;-68
2021/07/28 06:00:07;;;;;;;;;;;;;;;19.02;79.78;99839.13;10298088;28;20012;-69
2021/07/28 06:05:08;;;;;;;;;;;;;;;19.21;78.76;99848.50;10315107;28;20438;-67
2021/07/28 06:10:10;;;;;;;;;;;;;;;19.08;78.80;99839.22;10300028;28;19930;-65
2021/07/28 06:15:11;;;;;;;;;;;;;;;19.08;79.36;99851.91;10300264;28;19932;-66
2021/07/28 06:20:14;;;;;;;;;;;;;;;19.10;79.46;99859.78;10301473;28;20403;-67
2021/07/28 06:25:15;;;;;;;;;;;;;;;19.06;79.46;99868.22;10302033;28;19961;-68
2021/07/28 06:30:17;;;;;;;;;;;;;;;19.10;79.38;99862.50;10297000;28;20024;-66
2021/07/28 06:35:18;;;;;;;;;;;;;;;19.19;79.11;99866.75;10295548;28;20013;-66
2021/07/28 06:40:20;;;;;;;;;;;;;;;19.19;78.86;99856.78;10297957;28;19929;-67
2021/07/28 06:45:21;;;;;;;;;;;;;;;19.17;78.57;99875.03;10299934;28;20363;-67
2021/07/28 06:50:22;;;;;;;;;;;;;;;19.05;79.10;99871.97;10301163;28;20459;-68
2021/07/28 06:55:24;;;;;;;;;;;;;;;19.04;79.40;99891.06;10298923;28;19926;-67
2021/07/28 07:00:25;;;;;;;;;;;;;;;19.10;79.12;99881.38;10294466;28;20069;-68
2021/07/28 07:05:27;;;;;;;;;;;;;;;19.08;79.04;99873.47;10298251;28;19926;-68
2021/07/28 07:10:28;;;;;;;;;;;;;;;19.16;78.38;99867.13;10298294;28;19965;-67
2021/07/28 07:15:29;;;;;;;;;;;;;;;19.17;78.27;99863.38;10303310;28;22825;-67
2021/07/28 07:20:31;;;;;;;;;;;;;;;19.61;77.46;99851.63;10297405;28;19922;-68
2021/07/28 07:25:32;;;;;;;;;;;;;;;19.88;74.57;99862.72;10299739;28;19928;-68
2021/07/28 07:30:34;;;;;;;;;;;;;;;19.76;74.45;99874.00;10300031;28;19921;-68
2021/07/28 07:35:35;;;;;;;;;;;;;;;19.88;73.72;99868.13;10297018;28;20179;-68
2021/07/28 07:40:36;;;;;;;;;;;;;;;19.84;74.27;99874.94;10297950;28;19922;-67
2021/07/28 07:45:38;;;;;;;;;;;;;;;20.04;72.71;99875.09;10305263;28;19985;-67
2021/07/28 07:50:39;;;;;;;;;;;;;;;20.25;72.03;99858.88;10309062;28;20004;-68
2021/07/28 07:55:42;;;;;;;;;;;;;;;20.48;71.51;99853.22;10301818;28;19988;-68
2021/07/28 08:00:44;;;;;;;;;;;;;;;20.33;71.72;99849.78;10297558;28;19926;-67
2021/07/28 08:05:45;;;;;;;;;;;;;;;20.31;70.54;99854.53;10298467;28;19953;-69
2021/07/28 08:10:46;;;;;;;;;;;;;;;20.39;68.78;99840.06;10297906;28;20459;-68
2021/07/28 08:15:48;;;;;;;;;;;;;;;20.40;69.02;99822.78;10295946;28;20358;-69
2021/07/28 08:20:49;;;;;;;;;;;;;;;20.60;68.86;99836.44;10298834;28;20471;-68
2021/07/28 08:25:51;;;;;;;;;;;;;;;20.67;68.84;99840.03;10296237;28;20020;-69
2021/07/28 08:30:55;;;;;;;;;;;;;;;20.83;68.85;99850.50;10295635;28;19925;-68
2021/07/28 08:35:57;;;;;;;;;;;;;;;20.74;69.08;99842.78;10300162;28;19930;-68
2021/07/28 08:41:03;;;;;;;;;;;;;;;20.98;69.17;99836.84;10299658;28;20016;-68
2021/07/28 08:46:06;;;;;;;;;;;;;;;20.99;68.95;99846.66;10295649;28;19930;-69
2021/07/28 08:51:07;;;;;;;;;;;;;;;20.73;69.51;99836.56;10299884;28;19921;-68
2021/07/28 08:56:09;;;;;;;;;;;;;;;21.09;68.24;99850.84;10296925;28;19929;-69
2021/07/28 09:01:10;;;;;;;;;;;;;;;21.38;67.62;99844.28;10294691;28;20612;-69
2021/07/28 09:06:28;;;;;;;;;;;;;;;21.42;66.95;99855.53;10294240;28;19925;-69
2021/07/28 09:11:29;;;;;;;;;;;;;;;21.09;67.14;99846.28;10294796;28;19961;-67
2021/07/28 09:16:33;;;;;;;;;;;;;;;21.14;67.58;99849.19;10297576;28;21627;-68
2021/07/28 09:21:34;;;;;;;;;;;;;;;21.23;67.44;99844.44;10297187;28;20406;-68
2021/07/28 09:26:38;;;;;;;;;;;;;;;21.44;66.94;99854.28;10297562;28;19922;-67
2021/07/28 09:31:47;;;;;;;;;;;;;;;21.51;65.84;99848.91;10295372;28;20048;-68
2021/07/28 09:36:50;;;;;;;;;;;;;;;22.14;64.59;99850.44;10292455;28;20549;-67
2021/07/28 09:41:53;;;;;;;;;;;;;;;22.71;62.32;99842.66;10295144;28;19929;-66
2021/07/28 09:47:15;;;;;;;;;;;;;;;22.49;62.79;99842.91;10293479;28;19930;-69
2021/07/28 09:52:17;;;;;;;;;;;;;;;21.95;64.21;99835.84;10294513;28;20024;-69
2021/07/28 09:57:20;;;;;;;;;;;;;;;21.64;65.92;99827.28;10295551;28;19972;-69
2021/07/28 10:02:22;;;;;;;;;;;;;;;21.71;66.08;99822.69;10294536;28;19937;-67
2021/07/28 10:07:25;;;;;;;;;;;;;;;21.63;67.56;99822.06;10291479;28;19936;-68
2021/07/28 10:12:27;;;;;;;;;;;;;;;22.48;67.01;99826.84;10294001;28;19922;-67
2021/07/28 10:17:31;;;;;;;;;;;;;;;22.71;65.88;99831.78;10294967;28;19930;-67
2021/07/28 10:22:32;;;;;;;;;;;;;;;22.63;65.24;99830.16;10297162;28;20462;-67
2021/07/28 10:27:44;;;;;;;;;;;;;;;22.44;64.08;99818.28;10303583;28;20488;-67
2021/07/28 10:32:45;;;;;;;;;;;;;;;21.88;66.69;99814.16;10300616;28;20399;-68
2021/07/28 10:37:47;;;;;;;;;;;;;;;22.10;67.04;99812.09;10301385;28;20512;-68
2021/07/28 10:42:48;;;;;;;;;;;;;;;22.13;65.41;99811.66;10299595;28;19934;-68
2021/07/28 10:47:53;;;;;;;;;;;;;;;21.84;66.81;99830.00;10300990;28;20209;-69
2021/07/28 10:52:58;;;;;;;;;;;;;;;22.02;67.31;99828.53;10302823;28;20612;-68
2021/07/28 10:58:05;;;;;;;;;;;;;;;22.14;67.54;99826.03;10299940;28;20421;-67
2021/07/28 11:03:11;;;;;;;;;;;;;;;22.61;66.31;99813.28;10294592;28;19942;-66
2021/07/28 11:08:15;;;;;;;;;;;;;;;22.73;66.45;99816.97;10298768;28;20104;-69
2021/07/28 11:13:17;;;;;;;;;;;;;;;23.27;63.94;99808.63;10300905;28;19928;-70
2021/07/28 11:18:30;;;;;;;;;;;;;;;24.27;60.04;99807.03;10298666;28;20438;-68
2021/07/28 11:23:31;;;;;;;;;;;;;;;23.88;61.10;99804.44;10300788;28;20016;-68
2021/07/28 11:28:32;;;;;;;;;;;;;;;22.87;65.39;99806.91;10298733;28;19952;-71
2021/07/28 11:33:34;;;;;;;;;;;;;;;22.21;69.18;99805.19;10297136;28;19930;-71
2021/07/28 11:38:37;;;;;;;;;;;;;;;21.94;70.80;99812.50;10300984;28;20012;-69
2021/07/28 11:43:39;;;;;;;;;;;;;;;21.79;70.64;99813.53;10301675;28;20013;-69
2021/07/28 11:48:41;;;;;;;;;;;;;;;23.04;67.73;99814.56;10302762;28;20303;-69
2021/07/28 11:53:43;;;;;;;;;;;;;;;23.17;65.07;99798.22;10307667;28;20028;-69
2021/07/28 11:58:45;;;;;;;;;;;;;;;23.15;66.54;99805.78;10314368;28;19936;-67
2021/07/28 12:03:48;;;;;;;;;;;;;;;23.30;64.32;99806.31;10304561;28;19921;-68
2021/07/28 12:08:50;;;;;;;;;;;;;;;22.80;65.45;99816.94;10299547;28;19930;-69
2021/07/28 12:13:51;;;;;;;;;;;;;;;22.33;67.26;99813.53;10316140;28;19984;-68
2021/07/28 12:18:53;;;;;;;;;;;;;;;22.13;69.26;99835.19;10302471;28;19929;-68
2021/07/28 12:23:57;;;;;;;;;;;;;;;21.72;73.44;99837.06;10298657;28;19929;-68
2021/07/28 12:28:59;;;;;;;;;;;;;;;21.36;77.25;99830.09;10304106;28;19953;-68
2021/07/28 12:34:19;;;;;;;;;;;;;;;22.05;74.57;99828.13;10300905;28;19922;-68
2021/07/28 12:39:21;;;;;;;;;;;;;;;22.85;71.71;99822.56;10297354;28;20036;-70
2021/07/28 12:44:22;;;;;;;;;;;;;;;23.01;67.01;99823.94;10295268;28;20533;-69
2021/07/28 12:49:23;;;;;;;;;;;;;;;24.06;66.89;99816.44;10296250;28;19944;-68
2021/07/28 12:54:24;;;;;;;;;;;;;;;24.34;63.73;99819.50;10298739;28;20018;-67
2021/07/28 12:59:46;;;;;;;;;;;;;;;23.92;65.28;99813.84;10295385;28;19928;-68
2021/07/28 13:04:47;;;;;;;;;;;;;;;23.88;62.67;99820.75;10294544;28;20440;-69
2021/07/28 13:09:49;;;;;;;;;;;;;;;24.16;64.36;99816.75;10295030;28;19922;-69
2021/07/28 13:14:55;;;;;;;;;;;;;;;24.41;65.04;99807.72;10293022;28;19953;-70
2021/07/28 13:19:56;;;;;;;;;;;;;;;24.61;63.48;99808.38;10291793;28;19929;-70
2021/07/28 13:24:58;;;;;;;;;;;;;;;24.70;60.00;99801.56;10293055;28;20459;-69
2021/07/28 13:29:59;;;;;;;;;;;;;;;24.65;59.65;99798.72;10295719;28;20401;-69
2021/07/28 13:35:00;;;;;;;;;;;;;;;24.68;59.31;99803.69;10297483;28;19985;-68
2021/07/28 13:40:08;;;;;;;;;;;;;;;24.72;57.60;99797.78;10295930;28;19925;-69
2021/07/28 13:45:22;;;;;;;;;;;;;;;24.88;57.15;99787.09;10294311;28;20000;-68
2021/07/28 13:50:23;;;;;;;;;;;;;;;25.08;57.72;99779.75;10292570;28;20470;-69
2021/07/28 13:55:24;;;;;;;;;;;;;;;24.90;55.65;99778.72;10298486;28;19928;-69
2021/07/28 14:00:25;;;;;;;;;;;;;;;25.21;54.85;99782.28;10302684;28;20459;-68
2021/07/28 14:05:27;;;;;;;;;;;;;;;25.52;54.14;99762.16;10300328;28;19928;-68
2021/07/28 14:10:28;;;;;;;;;;;;;;;25.71;52.18;99757.41;10300481;28;20036;-70
2021/07/28 14:15:29;;;;;;;;;;;;;;;25.69;50.53;99758.75;10303265;28;20040;-69
2021/07/28 14:20:31;;;;;;;;;;;;;;;25.56;50.72;99744.25;10302470;28;20399;-69
2021/07/28 14:25:32;;;;;;;;;;;;;;;25.40;50.25;99737.59;10299935;28;19930;-68
2021/07/28 14:30:33;;;;;;;;;;;;;;;25.23;51.31;99729.22;10299767;28;20020;-68
2021/07/28 14:35:35;;;;;;;;;;;;;;;25.67;50.29;99729.00;10301502;28;19922;-68
2021/07/28 14:40:36;;;;;;;;;;;;;;;25.76;47.30;99738.47;10299350;28;20272;-71
2021/07/28 14:45:38;;;;;;;;;;;;;;;25.43;48.93;99732.75;10304158;28;19922;-70
2021/07/28 14:50:40;;;;;;;;;;;;;;;25.52;48.62;99732.19;10311942;28;19921;-67
2021/07/28 14:55:41;;;;;;;;;;;;;;;25.50;48.22;99736.19;10304587;28;19934;-69
2021/07/28 15:00:43;;;;;;;;;;;;;;;25.60;46.73;99744.63;10304024;28;20016;-70
2021/07/28 15:05:44;;;;;;;;;;;;;;;25.61;46.23;99729.09;10300302;28;19930;-69
2021/07/28 15:10:45;;;;;;;;;;;;;;;25.62;45.49;99734.31;10299506;28;20012;-69
2021/07/28 15:15:47;;;;;;;;;;;;;;;25.40;45.68;99731.31;10300204;28;20048;-70
2021/07/28 15:20:48;;;;;;;;;;;;;;;25.29;45.78;99738.34;10297977;28;20064;-68
2021/07/28 15:25:49;;;;;;;;;;;;;;;25.17;44.67;99737.50;10301232;28;20458;-70
2021/07/28 15:30:51;;;;;;;;;;;;;;;25.22;44.40;99732.19;10299724;28;19922;-70
2021/07/28 15:35:52;;;;;;;;;;;;;;;25.23;45.55;99722.94;10300598;28;20345;-69
2021/07/28 15:40:53;;;;;;;;;;;;;;;25.28;47.50;99728.56;10300346;28;20016;-69
2021/07/28 15:45:55;;;;;;;;;;;;;;;24.69;52.92;99731.84;10298144;28;19976;-68
2021/07/28 15:50:56;;;;;;;;;;;;;;;24.42;54.86;99744.13;10300981;28;19930;-69
2021/07/28 15:55:57;;;;;;;;;;;;;;;24.16;55.52;99757.75;10298464;28;20021;-67
2021/07/28 16:00:59;;;;;;;;;;;;;;;24.16;55.70;99762.38;10304687;28;20012;-66
2021/07/28 16:06:02;;;;;;;;;;;;;;;23.96;56.10;99762.56;10314189;28;19929;-68
2021/07/28 16:11:04;;;;;;;;;;;;;;;23.78;56.48;99761.44;10318185;28;19930;-69
2021/07/28 16:16:05;;;;;;;;;;;;;;;23.67;56.77;99761.34;10305764;28;19925;-69
2021/07/28 16:21:08;;;;;;;;;;;;;;;23.78;56.69;99755.16;10297818;28;19926;-68
2021/07/28 16:26:09;;;;;;;;;;;;;;;23.90;56.10;99756.16;10298053;28;19921;-69
2021/07/28 16:31:10;;;;;;;;;;;;;;;23.72;56.23;99762.34;10296132;28;20006;-68
2021/07/28 16:36:15;;;;;;;;;;;;;;;23.53;57.67;99766.88;10295547;28;20012;-68
2021/07/28 16:41:17;;;;;;;;;;;;;;;23.21;59.47;99771.47;10296952;28;19921;-71
2021/07/28 16:46:18;;;;;;;;;;;;;;;23.26;59.38;99764.34;10296471;28;19921;-69
2021/07/28 16:51:19;;;;;;;;;;;;;;;23.36;58.92;99773.88;10305977;28;19985;-69
2021/07/28 16:56:21;;;;;;;;;;;;;;;23.35;59.30;99772.25;10301771;28;20360;-68
2021/07/28 17:01:22;;;;;;;;;;;;;;;23.34;59.83;99776.81;10302969;28;19949;-69
2021/07/28 17:06:24;;;;;;;;;;;;;;;22.93;61.15;99775.38;10296436;28;19922;-68
2021/07/28 17:11:25;;;;;;;;;;;;;;;22.81;61.92;99777.09;10291721;28;19932;-67
2021/07/28 17:16:26;;;;;;;;;;;;;;;22.70;62.98;99781.28;10294958;28;20040;-67
2021/07/28 17:21:28;;;;;;;;;;;;;;;22.83;63.07;99802.94;10292638;28;19929;-68
2021/07/28 17:26:30;;;;;;;;;;;;;;;22.99;62.51;99787.25;10294846;28;20015;-68
2021/07/28 17:31:31;;;;;;;;;;;;;;;22.71;63.77;99788.38;10299856;28;19922;-69
2021/07/28 17:36:33;;;;;;;;;;;;;;;22.70;63.61;99778.56;10301498;28;20717;-69
2021/07/28 17:41:35;;;;;;;;;;;;;;;22.63;64.33;99788.66;10303513;28;20561;-70
2021/07/28 17:46:36;;;;;;;;;;;;;;;22.60;63.63;99777.16;10302476;28;20050;-70
2021/07/28 17:51:37;;;;;;;;;;;;;;;22.59;64.10;99780.09;10305237;28;20287;-68
2021/07/28 17:56:39;;;;;;;;;;;;;;;22.61;64.24;99778.00;10314055;28;19921;-69
2021/07/28 18:01:40;;;;;;;;;;;;;;;22.66;64.06;99771.94;10300723;28;20016;-70
2021/07/28 18:06:43;;;;;;;;;;;;;;;22.55;63.66;99782.41;10301864;28;19925;-69
2021/07/28 18:11:44;;;;;;;;;;;;;;;22.48;62.46;99780.75;10297117;28;19965;-69
2021/07/28 18:16:46;;;;;;;;;;;;;;;22.42;63.16;99777.84;10298851;28;19933;-69
2021/07/28 18:21:47;;;;;;;;;;;;;;;22.33;63.22;99778.28;10298799;28;19953;-69
2021/07/28 18:26:52;;;;;;;;;;;;;;;22.30;63.40;99781.41;10294254;28;20434;-69
2021/07/28 18:31:58;;;;;;;;;;;;;;;22.30;63.01;99784.13;10296496;28;19928;-69
2021/07/28 18:36:59;;;;;;;;;;;;;;;22.32;61.78;99790.19;10294609;28;19930;-69
2021/07/28 18:42:00;;;;;;;;;;;;;;;22.37;61.86;99793.94;10288902;28;19926;-70
2021/07/28 18:47:02;;;;;;;;;;;;;;;22.40;62.30;99808.94;10298930;28;20009;-69
2021/07/28 18:52:03;;;;;;;;;;;;;;;22.36;63.09;99797.66;10296291;28;19930;-69
2021/07/28 18:57:05;;;;;;;;;;;;;;;22.31;62.94;99805.63;10298828;28;20013;-67
2021/07/28 19:02:06;;;;;;;;;;;;;;;22.23;62.94;99801.22;10295316;28;20328;-67
2021/07/28 19:07:07;;;;;;;;;;;;;;;22.16;62.73;99797.69;10293456;28;19922;-68
2021/07/28 19:12:09;;;;;;;;;;;;;;;22.14;62.98;99810.59;10299976;28;20059;-67
2021/07/28 19:17:10;;;;;;;;;;;;;;;22.12;61.22;99807.28;10299728;28;20443;-69
2021/07/28 19:22:12;;;;;;;;;;;;;;;22.10;60.21;99808.50;10296809;28;20017;-68
2021/07/28 19:27:14;;;;;;;;;;;;;;;22.02;56.04;99810.44;10296495;28;19921;-69
2021/07/28 19:32:16;;;;;;;;;;;;;;;21.99;56.47;99818.13;10296907;28;20024;-69
2021/07/28 19:37:17;;;;;;;;;;;;;;;21.89;54.68;99818.56;10299029;28;20016;-67
2021/07/28 19:42:18;;;;;;;;;;;;;;;21.83;55.65;99825.63;10295831;28;19930;-68
2021/07/28 19:47:21;;;;;;;;;;;;;;;21.77;55.24;99834.59;10300275;28;20295;-67
2021/07/28 19:52:22;;;;;;;;;;;;;;;21.73;55.54;99825.19;10297311;28;19928;-68
2021/07/28 19:57:24;;;;;;;;;;;;;;;21.70;55.48;99831.03;10297964;28;19930;-68
2021/07/28 20:02:25;;;;;;;;;;;;;;;21.69;55.11;99846.47;10297348;28;19965;-68
2021/07/28 20:07:27;;;;;;;;;;;;;;;21.60;55.33;99857.69;10299899;28;20232;-68
2021/07/28 20:12:29;;;;;;;;;;;;;;;21.53;56.92;99863.91;10298376;28;19922;-68
2021/07/28 20:17:30;;;;;;;;;;;;;;;21.52;57.25;99861.41;10312229;28;19949;-67
2021/07/28 20:22:33;;;;;;;;;;;;;;;21.58;57.37;99868.72;10304115;28;20028;-66
2021/07/28 20:27:34;;;;;;;;;;;;;;;21.58;56.82;99859.78;10295203;28;20384;-68
2021/07/28 20:32:40;;;;;;;;;;;;;;;21.53;57.54;99861.22;10300552;28;19969;-67
2021/07/28 20:37:41;;;;;;;;;;;;;;;21.50;57.57;99874.34;10297774;28;19997;-68
2021/07/28 20:42:43;;;;;;;;;;;;;;;21.26;58.44;99873.81;10295230;28;19928;-66
2021/07/28 20:47:44;;;;;;;;;;;;;;;21.12;59.17;99872.94;10297663;28;20017;-67
2021/07/28 20:52:46;;;;;;;;;;;;;;;21.05;59.88;99869.34;10300050;28;20004;-69
2021/07/28 20:57:47;;;;;;;;;;;;;;;21.02;60.44;99880.59;10304489;28;19972;-66
2021/07/28 21:02:49;;;;;;;;;;;;;;;20.95;61.22;99877.00;10317870;28;19988;-69
2021/07/28 21:07:50;;;;;;;;;;;;;;;20.94;61.79;99892.41;10336844;28;20098;-68
2021/07/28 21:12:51;;;;;;;;;;;;;;;20.73;62.80;99885.22;10306364;28;19930;-68
2021/07/28 21:17:53;;;;;;;;;;;;;;;20.78;63.14;99885.44;10297000;28;20307;-67
2021/07/28 21:22:54;;;;;;;;;;;;;;;20.80;63.27;99886.06;10305557;28;19922;-68
2021/07/28 21:27:55;;;;;;;;;;;;;;;20.81;63.91;99893.16;10311666;28;20120;-66
2021/07/28 21:32:58;;;;;;;;;;;;;;;20.64;66.59;99895.34;10303932;28;19929;-68
2021/07/28 21:38:01;;;;;;;;;;;;;;;20.52;67.87;99887.94;10314099;28;20300;-69
2021/07/28 21:43:03;;;;;;;;;;;;;;;20.47;68.31;99885.84;10302125;28;19940;-69
2021/07/28 21:48:04;;;;;;;;;;;;;;;20.38;68.70;99882.44;10314929;28;20024;-69
2021/07/28 21:53:28;;;;;;;;;;;;;;;20.35;68.83;99888.25;10305993;28;20004;-68
2021/07/28 21:58:50;;;;;;;;;;;;;;;20.35;68.44;99888.25;10290942;28;19921;-68
2021/07/28 22:03:52;;;;;;;;;;;;;;;20.24;69.50;99886.09;10290214;28;19977;-68
2021/07/28 22:08:53;;;;;;;;;;;;;;;20.24;69.58;99891.50;10299416;28;20051;-68
2021/07/28 22:13:54;;;;;;;;;;;;;;;20.25;69.08;99888.59;10296757;28;20286;-67
2021/07/28 22:18:56;;;;;;;;;;;;;;;20.24;68.84;99891.50;10309009;28;19928;-70
2021/07/28 22:23:58;;;;;;;;;;;;;;;20.10;69.36;99886.00;10306973;28;19961;-67
2021/07/28 22:29:01;;;;;;;;;;;;;;;20.01;69.61;99887.16;10308791;28;19922;-69
2021/07/28 22:34:03;;;;;;;;;;;;;;;20.00;69.74;99890.06;10299256;28;19953;-68
2021/07/28 22:39:04;;;;;;;;;;;;;;;19.89;70.37;99883.28;10290742;28;20008;-70
2021/07/28 22:44:05;;;;;;;;;;;;;;;19.81;70.79;99886.13;10305178;28;20013;-68
2021/07/28 22:54:27;;;;;;;;;;;;;;;19.81;71.77;99899.63;10309602;28;20731;-69
2021/07/28 22:59:41;;;;;;;;;;;;;;;19.74;72.52;99907.63;10301198;28;20012;-70
2021/07/28 23:10:03;;;;;;;;;;;;;;;19.58;75.67;99911.41;10296168;28;20004;-68
2021/07/28 23:15:22;;;;;;;;;;;;;;;19.56;76.85;99906.22;10303440;28;19925;-67
2021/07/28 23:20:28;;;;;;;;;;;;;;;19.56;76.94;99897.25;10310275;28;19933;-67
2021/07/28 23:25:30;;;;;;;;;;;;;;;19.51;77.32;99897.00;10303988;28;20025;-67
2021/07/28 23:30:31;;;;;;;;;;;;;;;19.32;77.90;99904.69;10305589;28;20012;-69
2021/07/28 23:35:33;;;;;;;;;;;;;;;19.29;77.74;99905.06;10299110;28;20017;-69
2021/07/28 23:40:35;;;;;;;;;;;;;;;19.28;77.62;99902.56;10304853;28;19922;-69
2021/07/28 23:45:40;;;;;;;;;;;;;;;19.25;77.45;99901.06;10298488;28;20656;-68
2021/07/28 23:50:41;;;;;;;;;;;;;;;19.15;77.46;99895.13;10298711;28;19953;-67
2021/07/28 23:55:43;;;;;;;;;;;;;;;19.06;76.68;99903.31;10308365;28;20392;-68
